sensor_id;sensor_type;location;lat;lon;timestamp;temperature;humidity
11399;DHT22;5755;48.116;11.608;2022-07-04T00:01:28;21.10;62.10
11399;DHT22;5755;48.116;11.608;2022-07-04T00:03:58;21.10;59.80
11399;DHT22;5755;48.116;11.608;2022-07-04T00:06:45;21.20;61.00
11399;DHT22;5755;48.116;11.608;2022-07-04T00:09:12;21.30;57.60
11399;DHT22;5755;48.116;11.608;2022-07-04T00:11:40;21.30;57.10
11399;DHT22;5755;48.116;11.608;2022-07-04T00:14:22;21.40;57.20
11399;DHT22;5755;48.116;11.608;2022-07-04T00:16:52;21.40;57.20
11399;DHT22;5755;48.116;11.608;2022-07-04T00:19:39;21.40;57.20
11399;DHT22;5755;48.116;11.608;2022-07-04T00:22:27;21.50;57.30
11399;DHT22;5755;48.116;11.608;2022-07-04T00:24:54;21.50;57.30
11399;DHT22;5755;48.116;11.608;2022-07-04T00:27:35;21.60;57.40
11399;DHT22;5755;48.116;11.608;2022-07-04T00:30:03;21.50;58.50
11399;DHT22;5755;48.116;11.608;2022-07-04T00:32:34;21.30;64.80
11399;DHT22;5755;48.116;11.608;2022-07-04T00:35:27;21.20;65.60
11399;DHT22;5755;48.116;11.608;2022-07-04T00:37:54;21.20;66.40
11399;DHT22;5755;48.116;11.608;2022-07-04T00:40:34;21.20;65.50
11399;DHT22;5755;48.116;11.608;2022-07-04T00:43:03;21.20;65.90
11399;DHT22;5755;48.116;11.608;2022-07-04T00:45:30;21.10;68.10
11399;DHT22;5755;48.116;11.608;2022-07-04T00:47:58;21.10;67.50
11399;DHT22;5755;48.116;11.608;2022-07-04T00:50:51;21.10;66.70
11399;DHT22;5755;48.116;11.608;2022-07-04T00:53:19;21.20;67.00
11399;DHT22;5755;48.116;11.608;2022-07-04T00:55:52;21.10;65.50
11399;DHT22;5755;48.116;11.608;2022-07-04T00:58:35;21.10;64.90
11399;DHT22;5755;48.116;11.608;2022-07-04T01:01:16;21.10;64.50
11399;DHT22;5755;48.116;11.608;2022-07-04T01:03:46;21.00;65.90
11399;DHT22;5755;48.116;11.608;2022-07-04T01:06:33;20.90;66.40
11399;DHT22;5755;48.116;11.608;2022-07-04T01:09:01;21.00;67.30
11399;DHT22;5755;48.116;11.608;2022-07-04T01:11:28;21.00;68.60
11399;DHT22;5755;48.116;11.608;2022-07-04T01:14:17;21.10;66.90
11399;DHT22;5755;48.116;11.608;2022-07-04T01:17:03;21.10;66.50
11399;DHT22;5755;48.116;11.608;2022-07-04T01:19:30;21.10;66.60
11399;DHT22;5755;48.116;11.608;2022-07-04T01:22:07;21.00;67.20
11399;DHT22;5755;48.116;11.608;2022-07-04T01:24:34;21.10;65.70
11399;DHT22;5755;48.116;11.608;2022-07-04T01:27:01;21.00;65.20
11399;DHT22;5755;48.116;11.608;2022-07-04T01:29:28;20.90;65.90
11399;DHT22;5755;48.116;11.608;2022-07-04T01:31:55;20.90;66.70
11399;DHT22;5755;48.116;11.608;2022-07-04T01:34:22;20.80;65.60
11399;DHT22;5755;48.116;11.608;2022-07-04T01:37:05;20.80;69.30
11399;DHT22;5755;48.116;11.608;2022-07-04T01:39:34;20.90;67.90
11399;DHT22;5755;48.116;11.608;2022-07-04T01:42:10;20.90;62.30
11399;DHT22;5755;48.116;11.608;2022-07-04T01:44:52;20.80;61.80
11399;DHT22;5755;48.116;11.608;2022-07-04T01:47:22;20.90;60.70
11399;DHT22;5755;48.116;11.608;2022-07-04T01:49:49;20.90;59.30
11399;DHT22;5755;48.116;11.608;2022-07-04T01:52:24;21.00;59.80
11399;DHT22;5755;48.116;11.608;2022-07-04T01:54:52;20.90;59.50
11399;DHT22;5755;48.116;11.608;2022-07-04T01:57:22;21.00;58.50
11399;DHT22;5755;48.116;11.608;2022-07-04T01:59:49;21.00;56.80
11399;DHT22;5755;48.116;11.608;2022-07-04T02:02:33;20.90;56.70
11399;DHT22;5755;48.116;11.608;2022-07-04T02:05:05;20.90;57.20
11399;DHT22;5755;48.116;11.608;2022-07-04T02:07:35;20.90;56.80
11399;DHT22;5755;48.116;11.608;2022-07-04T02:10:03;20.90;58.20
11399;DHT22;5755;48.116;11.608;2022-07-04T02:12:34;20.90;58.80
11399;DHT22;5755;48.116;11.608;2022-07-04T02:15:18;20.80;59.80
11399;DHT22;5755;48.116;11.608;2022-07-04T02:17:59;20.80;60.00
11399;DHT22;5755;48.116;11.608;2022-07-04T02:20:28;20.70;61.70
11399;DHT22;5755;48.116;11.608;2022-07-04T02:23:11;20.70;61.80
11399;DHT22;5755;48.116;11.608;2022-07-04T02:25:52;20.70;62.00
11399;DHT22;5755;48.116;11.608;2022-07-04T02:28:22;20.70;62.60
11399;DHT22;5755;48.116;11.608;2022-07-04T02:30:52;20.70;65.20
11399;DHT22;5755;48.116;11.608;2022-07-04T02:33:22;20.70;64.70
11399;DHT22;5755;48.116;11.608;2022-07-04T02:35:49;20.60;66.20
11399;DHT22;5755;48.116;11.608;2022-07-04T02:38:18;20.50;66.90
11399;DHT22;5755;48.116;11.608;2022-07-04T02:41:04;20.50;68.00
11399;DHT22;5755;48.116;11.608;2022-07-04T02:43:31;20.50;67.80
11399;DHT22;5755;48.116;11.608;2022-07-04T02:45:58;20.40;67.20
11399;DHT22;5755;48.116;11.608;2022-07-04T02:48:25;20.50;68.40
11399;DHT22;5755;48.116;11.608;2022-07-04T02:50:58;20.50;68.30
11399;DHT22;5755;48.116;11.608;2022-07-04T02:53:41;20.40;69.00
11399;DHT22;5755;48.116;11.608;2022-07-04T02:56:16;20.40;70.00
11399;DHT22;5755;48.116;11.608;2022-07-04T02:59:03;20.30;70.70
11399;DHT22;5755;48.116;11.608;2022-07-04T03:01:30;20.20;71.00
11399;DHT22;5755;48.116;11.608;2022-07-04T03:03:58;20.10;72.50
11399;DHT22;5755;48.116;11.608;2022-07-04T03:06:25;20.10;74.00
11399;DHT22;5755;48.116;11.608;2022-07-04T03:09:03;20.20;74.10
11399;DHT22;5755;48.116;11.608;2022-07-04T03:12:11;20.10;74.10
11399;DHT22;5755;48.116;11.608;2022-07-04T03:14:57;20.00;77.40
11399;DHT22;5755;48.116;11.608;2022-07-04T03:17:39;20.20;78.00
11399;DHT22;5755;48.116;11.608;2022-07-04T03:23:51;20.10;75.90
11399;DHT22;5755;48.116;11.608;2022-07-04T03:26:42;20.00;80.30
11399;DHT22;5755;48.116;11.608;2022-07-04T03:29:16;20.10;77.30
11399;DHT22;5755;48.116;11.608;2022-07-04T03:31:46;20.10;78.30
11399;DHT22;5755;48.116;11.608;2022-07-04T03:34:33;19.90;77.70
11399;DHT22;5755;48.116;11.608;2022-07-04T03:37:01;20.00;80.90
11399;DHT22;5755;48.116;11.608;2022-07-04T03:39:28;20.20;81.00
11399;DHT22;5755;48.116;11.608;2022-07-04T03:42:11;20.10;78.50
11399;DHT22;5755;48.116;11.608;2022-07-04T03:44:52;19.90;78.40
11399;DHT22;5755;48.116;11.608;2022-07-04T03:50:31;19.80;80.70
11399;DHT22;5755;48.116;11.608;2022-07-04T03:52:58;19.80;80.70
11399;DHT22;5755;48.116;11.608;2022-07-04T03:55:25;19.90;80.80
11399;DHT22;5755;48.116;11.608;2022-07-04T03:57:53;20.10;80.90
11399;DHT22;5755;48.116;11.608;2022-07-04T04:00:20;20.30;81.00
11399;DHT22;5755;48.116;11.608;2022-07-04T04:03:04;20.40;78.10
11399;DHT22;5755;48.116;11.608;2022-07-04T04:05:52;20.40;78.60
11399;DHT22;5755;48.116;11.608;2022-07-04T04:08:22;20.50;78.60
11399;DHT22;5755;48.116;11.608;2022-07-04T04:10:50;20.50;78.70
11399;DHT22;5755;48.116;11.608;2022-07-04T04:13:53;20.50;77.00
11399;DHT22;5755;48.116;11.608;2022-07-04T04:16:28;20.40;77.90
11399;DHT22;5755;48.116;11.608;2022-07-04T04:18:58;20.20;78.30
11399;DHT22;5755;48.116;11.608;2022-07-04T04:21:25;20.10;78.70
11399;DHT22;5755;48.116;11.608;2022-07-04T04:23:52;20.10;80.90
11399;DHT22;5755;48.116;11.608;2022-07-04T04:29:39;20.20;80.60
11399;DHT22;5755;48.116;11.608;2022-07-04T04:32:07;20.20;77.80
11399;DHT22;5755;48.116;11.608;2022-07-04T04:34:40;20.20;77.90
11399;DHT22;5755;48.116;11.608;2022-07-04T04:37:22;20.10;80.20
11399;DHT22;5755;48.116;11.608;2022-07-04T04:40:05;20.10;80.90
11399;DHT22;5755;48.116;11.608;2022-07-04T04:42:32;20.10;80.90
11399;DHT22;5755;48.116;11.608;2022-07-04T04:45:11;20.10;80.90
11399;DHT22;5755;48.116;11.608;2022-07-04T04:47:46;20.10;80.90
11399;DHT22;5755;48.116;11.608;2022-07-04T04:50:22;20.30;81.00
11399;DHT22;5755;48.116;11.608;2022-07-04T04:52:49;20.50;81.20
11399;DHT22;5755;48.116;11.608;2022-07-04T04:55:16;20.80;78.40
11399;DHT22;5755;48.116;11.608;2022-07-04T04:57:52;20.90;79.40
11399;DHT22;5755;48.116;11.608;2022-07-04T05:00:35;20.90;77.10
11399;DHT22;5755;48.116;11.608;2022-07-04T05:03:10;21.00;76.60
11399;DHT22;5755;48.116;11.608;2022-07-04T05:05:40;21.00;75.60
11399;DHT22;5755;48.116;11.608;2022-07-04T05:08:10;21.00;75.30
11399;DHT22;5755;48.116;11.608;2022-07-04T05:10:37;21.10;73.50
11399;DHT22;5755;48.116;11.608;2022-07-04T05:13:16;21.20;76.60
11399;DHT22;5755;48.116;11.608;2022-07-04T05:15:45;21.20;75.30
11399;DHT22;5755;48.116;11.608;2022-07-04T05:18:34;21.30;74.90
11399;DHT22;5755;48.116;11.608;2022-07-04T05:21:16;21.30;74.00
11399;DHT22;5755;48.116;11.608;2022-07-04T05:23:52;21.10;76.90
11399;DHT22;5755;48.116;11.608;2022-07-04T05:26:22;21.10;77.20
11399;DHT22;5755;48.116;11.608;2022-07-04T05:29:04;21.10;75.80
11399;DHT22;5755;48.116;11.608;2022-07-04T05:31:32;21.10;76.40
11399;DHT22;5755;48.116;11.608;2022-07-04T05:34:04;20.80;79.30
11399;DHT22;5755;48.116;11.608;2022-07-04T05:36:32;20.70;81.30
11399;DHT22;5755;48.116;11.608;2022-07-04T05:39:04;20.70;81.30
11399;DHT22;5755;48.116;11.608;2022-07-04T05:41:40;20.70;83.60
11399;DHT22;5755;48.116;11.608;2022-07-04T05:44:40;20.60;84.70
11399;DHT22;5755;48.116;11.608;2022-07-04T05:47:24;20.50;85.40
11399;DHT22;5755;48.116;11.608;2022-07-04T05:50:05;20.50;85.20
11399;DHT22;5755;48.116;11.608;2022-07-04T05:52:34;20.60;84.10
11399;DHT22;5755;48.116;11.608;2022-07-04T05:55:16;20.70;82.40
11399;DHT22;5755;48.116;11.608;2022-07-04T05:57:46;20.80;83.50
11399;DHT22;5755;48.116;11.608;2022-07-04T06:00:34;20.80;81.40
11399;DHT22;5755;48.116;11.608;2022-07-04T06:03:06;20.90;81.40
11399;DHT22;5755;48.116;11.608;2022-07-04T06:06:04;20.90;83.80
11399;DHT22;5755;48.116;11.608;2022-07-04T06:08:46;21.10;81.60
11399;DHT22;5755;48.116;11.608;2022-07-04T06:11:22;21.10;83.70
11399;DHT22;5755;48.116;11.608;2022-07-04T06:13:49;21.10;81.60
11399;DHT22;5755;48.116;11.608;2022-07-04T06:16:40;21.10;81.60
11399;DHT22;5755;48.116;11.608;2022-07-04T06:19:12;21.10;81.60
11399;DHT22;5755;48.116;11.608;2022-07-04T06:21:52;21.20;80.50
11399;DHT22;5755;48.116;11.608;2022-07-04T06:24:34;21.20;80.90
11399;DHT22;5755;48.116;11.608;2022-07-04T06:27:16;21.10;81.60
11399;DHT22;5755;48.116;11.608;2022-07-04T06:29:46;21.10;81.60
11399;DHT22;5755;48.116;11.608;2022-07-04T06:32:13;21.10;81.20
11399;DHT22;5755;48.116;11.608;2022-07-04T06:34:48;21.10;79.40
11399;DHT22;5755;48.116;11.608;2022-07-04T06:37:58;21.10;78.70
11399;DHT22;5755;48.116;11.608;2022-07-04T06:43:40;21.30;77.90
11399;DHT22;5755;48.116;11.608;2022-07-04T06:46:07;21.30;77.70
11399;DHT22;5755;48.116;11.608;2022-07-04T06:48:40;21.30;80.40
11399;DHT22;5755;48.116;11.608;2022-07-04T06:51:18;21.30;79.40
11399;DHT22;5755;48.116;11.608;2022-07-04T06:54:04;21.30;79.20
11399;DHT22;5755;48.116;11.608;2022-07-04T06:56:34;21.30;81.70
11399;DHT22;5755;48.116;11.608;2022-07-04T07:02:06;21.10;81.60
11399;DHT22;5755;48.116;11.608;2022-07-04T07:04:40;21.10;82.50
11399;DHT22;5755;48.116;11.608;2022-07-04T07:07:32;21.00;81.60
11399;DHT22;5755;48.116;11.608;2022-07-04T07:10:10;21.10;81.60
11399;DHT22;5755;48.116;11.608;2022-07-04T07:12:37;21.10;81.60
11399;DHT22;5755;48.116;11.608;2022-07-04T07:15:16;21.00;82.40
11399;DHT22;5755;48.116;11.608;2022-07-04T07:17:45;21.00;81.50
11399;DHT22;5755;48.116;11.608;2022-07-04T07:20:34;20.90;81.40
11399;DHT22;5755;48.116;11.608;2022-07-04T07:23:06;20.90;81.70
11399;DHT22;5755;48.116;11.608;2022-07-04T07:25:34;20.80;84.00
11399;DHT22;5755;48.116;11.608;2022-07-04T07:28:10;21.00;81.60
11399;DHT22;5755;48.116;11.608;2022-07-04T07:30:46;20.90;84.40
11399;DHT22;5755;48.116;11.608;2022-07-04T07:33:13;20.90;84.40
11399;DHT22;5755;48.116;11.608;2022-07-04T07:35:40;21.00;82.00
11399;DHT22;5755;48.116;11.608;2022-07-04T07:38:12;21.00;83.40
11399;DHT22;5755;48.116;11.608;2022-07-04T07:40:46;20.80;83.20
11399;DHT22;5755;48.116;11.608;2022-07-04T07:43:34;20.70;84.80
11399;DHT22;5755;48.116;11.608;2022-07-04T07:46:28;20.60;86.60
11399;DHT22;5755;48.116;11.608;2022-07-04T07:48:55;20.70;86.90
11399;DHT22;5755;48.116;11.608;2022-07-04T07:51:28;20.80;86.50
11399;DHT22;5755;48.116;11.608;2022-07-04T07:53:57;20.90;85.20
11399;DHT22;5755;48.116;11.608;2022-07-04T07:56:40;21.10;84.60
11399;DHT22;5755;48.116;11.608;2022-07-04T07:59:34;21.40;84.10
11399;DHT22;5755;48.116;11.608;2022-07-04T08:02:04;21.80;82.10
11399;DHT22;5755;48.116;11.608;2022-07-04T08:04:46;22.10;77.20
11399;DHT22;5755;48.116;11.608;2022-07-04T08:07:16;22.30;76.70
11399;DHT22;5755;48.116;11.608;2022-07-04T08:10:11;22.30;75.30
11399;DHT22;5755;48.116;11.608;2022-07-04T08:12:52;22.20;76.20
11399;DHT22;5755;48.116;11.608;2022-07-04T08:15:21;22.20;76.30
11399;DHT22;5755;48.116;11.608;2022-07-04T08:17:59;22.30;77.10
11399;DHT22;5755;48.116;11.608;2022-07-04T08:20:28;22.40;75.50
11399;DHT22;5755;48.116;11.608;2022-07-04T08:23:16;22.60;70.40
11399;DHT22;5755;48.116;11.608;2022-07-04T08:26:17;22.90;73.30
11399;DHT22;5755;48.116;11.608;2022-07-04T08:28:45;23.20;67.30
11399;DHT22;5755;48.116;11.608;2022-07-04T08:31:34;23.70;61.60
11399;DHT22;5755;48.116;11.608;2022-07-04T08:34:22;23.90;56.90
11399;DHT22;5755;48.116;11.608;2022-07-04T08:36:52;24.00;57.50
11399;DHT22;5755;48.116;11.608;2022-07-04T08:39:25;24.30;57.10
11399;DHT22;5755;48.116;11.608;2022-07-04T08:42:19;24.70;53.90
11399;DHT22;5755;48.116;11.608;2022-07-04T08:44:48;25.50;44.00
11399;DHT22;5755;48.116;11.608;2022-07-04T08:47:40;25.60;43.80
11399;DHT22;5755;48.116;11.608;2022-07-04T08:50:25;25.80;40.70
11399;DHT22;5755;48.116;11.608;2022-07-04T08:53:00;25.80;39.80
11399;DHT22;5755;48.116;11.608;2022-07-04T08:55:48;25.80;39.30
11399;DHT22;5755;48.116;11.608;2022-07-04T08:58:34;26.00;36.80
11399;DHT22;5755;48.116;11.608;2022-07-04T09:01:02;26.80;35.90
11399;DHT22;5755;48.116;11.608;2022-07-04T09:03:58;27.70;30.60
11399;DHT22;5755;48.116;11.608;2022-07-04T09:06:34;28.80;26.90
11399;DHT22;5755;48.116;11.608;2022-07-04T09:09:05;29.70;24.90
11399;DHT22;5755;48.116;11.608;2022-07-04T09:11:34;31.10;18.80
11399;DHT22;5755;48.116;11.608;2022-07-04T09:14:03;31.60;19.00
11399;DHT22;5755;48.116;11.608;2022-07-04T09:16:40;33.10;18.00
11399;DHT22;5755;48.116;11.608;2022-07-04T09:19:18;33.70;15.40
11399;DHT22;5755;48.116;11.608;2022-07-04T09:22:03;34.40;14.20
11399;DHT22;5755;48.116;11.608;2022-07-04T09:24:53;34.60;13.00
11399;DHT22;5755;48.116;11.608;2022-07-04T09:27:42;34.60;12.10
11399;DHT22;5755;48.116;11.608;2022-07-04T09:30:15;35.00;12.20
11399;DHT22;5755;48.116;11.608;2022-07-04T09:32:44;35.10;11.50
11399;DHT22;5755;48.116;11.608;2022-07-04T09:41:56;32.90;16.10
11399;DHT22;5755;48.116;11.608;2022-07-04T09:44:45;33.10;15.00
11399;DHT22;5755;48.116;11.608;2022-07-04T09:47:30;32.90;14.80
11399;DHT22;5755;48.116;11.608;2022-07-04T09:50:06;32.90;16.70
11399;DHT22;5755;48.116;11.608;2022-07-04T09:55:55;32.90;14.70
11399;DHT22;5755;48.116;11.608;2022-07-04T09:58:37;33.00;16.40
11399;DHT22;5755;48.116;11.608;2022-07-04T10:01:21;33.60;15.20
11399;DHT22;5755;48.116;11.608;2022-07-04T10:04:06;33.30;12.70
11399;DHT22;5755;48.116;11.608;2022-07-04T10:06:38;32.70;14.80
11399;DHT22;5755;48.116;11.608;2022-07-04T10:09:22;31.80;15.50
11399;DHT22;5755;48.116;11.608;2022-07-04T10:11:55;31.20;17.30
11399;DHT22;5755;48.116;11.608;2022-07-04T10:14:22;31.00;19.30
11399;DHT22;5755;48.116;11.608;2022-07-04T10:16:53;30.80;18.90
11399;DHT22;5755;48.116;11.608;2022-07-04T10:19:24;30.60;19.40
11399;DHT22;5755;48.116;11.608;2022-07-04T10:22:10;30.20;19.40
11399;DHT22;5755;48.116;11.608;2022-07-04T10:24:40;29.60;22.00
11399;DHT22;5755;48.116;11.608;2022-07-04T10:27:13;29.40;22.10
11399;DHT22;5755;48.116;11.608;2022-07-04T10:30:04;28.90;24.50
11399;DHT22;5755;48.116;11.608;2022-07-04T10:35:55;28.40;25.10
11399;DHT22;5755;48.116;11.608;2022-07-04T10:38:24;28.20;21.60
11399;DHT22;5755;48.116;11.608;2022-07-04T10:41:06;27.70;24.50
11399;DHT22;5755;48.116;11.608;2022-07-04T10:43:50;27.30;25.50
11399;DHT22;5755;48.116;11.608;2022-07-04T10:50:04;27.10;25.80
11399;DHT22;5755;48.116;11.608;2022-07-04T10:52:36;27.10;26.20
11399;DHT22;5755;48.116;11.608;2022-07-04T10:55:16;27.30;25.80
11399;DHT22;5755;48.116;11.608;2022-07-04T10:57:52;27.20;27.40
11399;DHT22;5755;48.116;11.608;2022-07-04T11:00:36;26.90;25.90
11399;DHT22;5755;48.116;11.608;2022-07-04T11:03:16;26.90;27.60
11399;DHT22;5755;48.116;11.608;2022-07-04T11:05:45;27.00;29.10
11399;DHT22;5755;48.116;11.608;2022-07-04T11:08:24;27.00;25.70
11399;DHT22;5755;48.116;11.608;2022-07-04T11:14:32;26.90;25.70
11399;DHT22;5755;48.116;11.608;2022-07-04T11:17:01;27.20;24.80
11399;DHT22;5755;48.116;11.608;2022-07-04T11:19:41;27.20;26.90
11399;DHT22;5755;48.116;11.608;2022-07-04T11:22:22;27.50;25.00
11399;DHT22;5755;48.116;11.608;2022-07-04T11:25:00;27.70;27.30
11399;DHT22;5755;48.116;11.608;2022-07-04T11:27:28;28.10;23.80
11399;DHT22;5755;48.116;11.608;2022-07-04T11:30:11;28.20;24.70
11399;DHT22;5755;48.116;11.608;2022-07-04T11:32:46;28.50;21.10
11399;DHT22;5755;48.116;11.608;2022-07-04T11:35:28;28.70;22.10
11399;DHT22;5755;48.116;11.608;2022-07-04T11:38:10;28.70;21.50
11399;DHT22;5755;48.116;11.608;2022-07-04T11:40:48;28.60;23.80
11399;DHT22;5755;48.116;11.608;2022-07-04T11:43:46;28.50;22.50
11399;DHT22;5755;48.116;11.608;2022-07-04T11:46:40;28.20;22.50
11399;DHT22;5755;48.116;11.608;2022-07-04T11:49:22;28.20;25.20
11399;DHT22;5755;48.116;11.608;2022-07-04T11:51:52;28.50;20.90
11399;DHT22;5755;48.116;11.608;2022-07-04T11:54:22;28.90;23.20
11399;DHT22;5755;48.116;11.608;2022-07-04T11:57:16;29.10;23.20
11399;DHT22;5755;48.116;11.608;2022-07-04T11:59:58;28.80;23.80
11399;DHT22;5755;48.116;11.608;2022-07-04T12:02:41;28.50;21.50
11399;DHT22;5755;48.116;11.608;2022-07-04T12:05:12;28.40;23.80
11399;DHT22;5755;48.116;11.608;2022-07-04T12:11:04;28.50;20.70
11399;DHT22;5755;48.116;11.608;2022-07-04T12:13:42;28.20;20.20
11399;DHT22;5755;48.116;11.608;2022-07-04T12:16:28;27.90;21.10
11399;DHT22;5755;48.116;11.608;2022-07-04T12:18:55;27.80;21.70
11399;DHT22;5755;48.116;11.608;2022-07-04T12:21:28;27.60;21.30
11399;DHT22;5755;48.116;11.608;2022-07-04T12:23:55;27.70;23.30
11399;DHT22;5755;48.116;11.608;2022-07-04T12:26:31;27.80;23.60
11399;DHT22;5755;48.116;11.608;2022-07-04T12:29:00;27.90;22.50
11399;DHT22;5755;48.116;11.608;2022-07-04T12:31:38;28.00;21.20
11399;DHT22;5755;48.116;11.608;2022-07-04T12:34:13;28.30;21.60
11399;DHT22;5755;48.116;11.608;2022-07-04T12:36:48;28.30;20.30
11399;DHT22;5755;48.116;11.608;2022-07-04T12:39:27;28.20;20.50
11399;DHT22;5755;48.116;11.608;2022-07-04T12:42:04;28.30;20.10
11399;DHT22;5755;48.116;11.608;2022-07-04T12:44:43;28.20;20.30
11399;DHT22;5755;48.116;11.608;2022-07-04T12:47:22;28.10;21.60
11399;DHT22;5755;48.116;11.608;2022-07-04T12:49:53;28.20;23.10
11399;DHT22;5755;48.116;11.608;2022-07-04T12:52:20;28.00;22.20
11399;DHT22;5755;48.116;11.608;2022-07-04T12:55:10;27.90;23.20
11399;DHT22;5755;48.116;11.608;2022-07-04T13:01:23;27.80;22.50
11399;DHT22;5755;48.116;11.608;2022-07-04T13:04:05;27.70;21.90
11399;DHT22;5755;48.116;11.608;2022-07-04T13:06:49;27.80;24.10
11399;DHT22;5755;48.116;11.608;2022-07-04T13:09:22;27.90;21.40
11399;DHT22;5755;48.116;11.608;2022-07-04T13:11:52;28.30;22.60
11399;DHT22;5755;48.116;11.608;2022-07-04T13:14:46;28.50;21.30
11399;DHT22;5755;48.116;11.608;2022-07-04T13:20:25;28.90;20.70
11399;DHT22;5755;48.116;11.608;2022-07-04T13:22:58;28.90;22.30
11399;DHT22;5755;48.116;11.608;2022-07-04T13:25:58;28.90;20.70
11399;DHT22;5755;48.116;11.608;2022-07-04T13:28:28;29.00;20.60
11399;DHT22;5755;48.116;11.608;2022-07-04T13:30:58;29.00;20.80
11399;DHT22;5755;48.116;11.608;2022-07-04T13:33:26;29.00;21.60
11399;DHT22;5755;48.116;11.608;2022-07-04T13:36:00;28.70;19.20
11399;DHT22;5755;48.116;11.608;2022-07-04T13:38:28;28.40;20.60
11399;DHT22;5755;48.116;11.608;2022-07-04T13:41:22;28.20;22.20
11399;DHT22;5755;48.116;11.608;2022-07-04T13:43:52;28.00;22.50
11399;DHT22;5755;48.116;11.608;2022-07-04T13:46:22;28.10;22.80
11399;DHT22;5755;48.116;11.608;2022-07-04T13:48:58;28.20;21.50
11399;DHT22;5755;48.116;11.608;2022-07-04T13:51:30;28.40;20.60
11399;DHT22;5755;48.116;11.608;2022-07-04T13:54:04;28.30;20.60
11399;DHT22;5755;48.116;11.608;2022-07-04T13:56:35;28.60;21.20
11399;DHT22;5755;48.116;11.608;2022-07-04T13:59:02;28.60;20.50
11399;DHT22;5755;48.116;11.608;2022-07-04T14:01:40;28.60;19.40
11399;DHT22;5755;48.116;11.608;2022-07-04T14:04:07;28.50;19.70
11399;DHT22;5755;48.116;11.608;2022-07-04T14:06:36;28.30;20.60
11399;DHT22;5755;48.116;11.608;2022-07-04T14:09:10;28.30;22.30
11399;DHT22;5755;48.116;11.608;2022-07-04T14:11:52;28.50;22.40
11399;DHT22;5755;48.116;11.608;2022-07-04T14:17:40;28.10;21.90
11399;DHT22;5755;48.116;11.608;2022-07-04T14:20:11;27.90;23.90
11399;DHT22;5755;48.116;11.608;2022-07-04T14:22:40;27.80;23.60
11399;DHT22;5755;48.116;11.608;2022-07-04T14:25:08;27.80;23.50
11399;DHT22;5755;48.116;11.608;2022-07-04T14:27:41;27.80;21.30
11399;DHT22;5755;48.116;11.608;2022-07-04T14:30:11;27.80;22.10
11399;DHT22;5755;48.116;11.608;2022-07-04T14:32:38;27.90;22.50
11399;DHT22;5755;48.116;11.608;2022-07-04T14:35:10;28.00;22.10
11399;DHT22;5755;48.116;11.608;2022-07-04T14:37:42;28.00;23.30
11399;DHT22;5755;48.116;11.608;2022-07-04T14:40:20;28.20;22.90
11399;DHT22;5755;48.116;11.608;2022-07-04T14:43:16;28.20;23.00
11399;DHT22;5755;48.116;11.608;2022-07-04T14:45:49;27.80;23.60
11399;DHT22;5755;48.116;11.608;2022-07-04T14:48:40;27.50;22.50
11399;DHT22;5755;48.116;11.608;2022-07-04T14:51:17;27.30;23.90
11399;DHT22;5755;48.116;11.608;2022-07-04T14:53:54;27.10;22.60
11399;DHT22;5755;48.116;11.608;2022-07-04T14:56:21;26.90;23.20
11399;DHT22;5755;48.116;11.608;2022-07-04T14:58:48;26.90;25.40
11399;DHT22;5755;48.116;11.608;2022-07-04T15:01:16;26.90;24.80
11399;DHT22;5755;48.116;11.608;2022-07-04T15:03:53;27.10;23.90
11399;DHT22;5755;48.116;11.608;2022-07-04T15:06:20;27.30;23.40
11399;DHT22;5755;48.116;11.608;2022-07-04T15:08:47;27.30;24.40
11399;DHT22;5755;48.116;11.608;2022-07-04T15:11:16;27.30;25.60
11399;DHT22;5755;48.116;11.608;2022-07-04T15:13:43;27.40;23.50
11399;DHT22;5755;48.116;11.608;2022-07-04T15:16:11;27.40;24.00
11399;DHT22;5755;48.116;11.608;2022-07-04T15:18:46;27.20;25.80
11399;DHT22;5755;48.116;11.608;2022-07-04T15:21:13;27.10;25.40
11399;DHT22;5755;48.116;11.608;2022-07-04T15:24:17;27.00;24.60
11399;DHT22;5755;48.116;11.608;2022-07-04T15:29:59;26.60;25.40
11399;DHT22;5755;48.116;11.608;2022-07-04T15:32:27;26.60;25.50
11399;DHT22;5755;48.116;11.608;2022-07-04T15:35:05;26.60;26.10
11399;DHT22;5755;48.116;11.608;2022-07-04T15:37:40;26.60;25.40
11399;DHT22;5755;48.116;11.608;2022-07-04T15:40:23;26.80;25.60
11399;DHT22;5755;48.116;11.608;2022-07-04T15:43:10;26.80;25.60
11399;DHT22;5755;48.116;11.608;2022-07-04T15:45:48;26.80;25.50
11399;DHT22;5755;48.116;11.608;2022-07-04T15:48:17;26.70;25.20
11399;DHT22;5755;48.116;11.608;2022-07-04T15:50:47;26.70;25.50
11399;DHT22;5755;48.116;11.608;2022-07-04T15:53:17;26.70;26.10
11399;DHT22;5755;48.116;11.608;2022-07-04T15:55:46;26.70;25.10
11399;DHT22;5755;48.116;11.608;2022-07-04T15:58:16;26.60;25.50
11399;DHT22;5755;48.116;11.608;2022-07-04T16:00:48;26.60;25.50
11399;DHT22;5755;48.116;11.608;2022-07-04T16:03:15;26.60;25.80
11399;DHT22;5755;48.116;11.608;2022-07-04T16:06:04;26.60;26.40
11399;DHT22;5755;48.116;11.608;2022-07-04T16:08:35;26.60;25.80
11399;DHT22;5755;48.116;11.608;2022-07-04T16:11:11;26.60;25.10
11399;DHT22;5755;48.116;11.608;2022-07-04T16:14:10;26.70;24.80
11399;DHT22;5755;48.116;11.608;2022-07-04T16:16:54;26.70;25.50
11399;DHT22;5755;48.116;11.608;2022-07-04T16:19:21;26.60;25.40
11399;DHT22;5755;48.116;11.608;2022-07-04T16:21:53;26.60;25.80
11399;DHT22;5755;48.116;11.608;2022-07-04T16:24:40;26.80;25.40
11399;DHT22;5755;48.116;11.608;2022-07-04T16:27:11;26.70;26.20
11399;DHT22;5755;48.116;11.608;2022-07-04T16:30:10;26.50;26.90
11399;DHT22;5755;48.116;11.608;2022-07-04T16:32:54;26.50;25.80
11399;DHT22;5755;48.116;11.608;2022-07-04T16:35:23;26.40;26.70
11399;DHT22;5755;48.116;11.608;2022-07-04T16:37:53;26.40;25.60
11399;DHT22;5755;48.116;11.608;2022-07-04T16:40:46;26.30;27.00
11399;DHT22;5755;48.116;11.608;2022-07-04T16:46:29;26.20;26.70
11399;DHT22;5755;48.116;11.608;2022-07-04T16:49:06;26.10;26.00
11399;DHT22;5755;48.116;11.608;2022-07-04T16:51:41;26.00;26.80
11399;DHT22;5755;48.116;11.608;2022-07-04T16:54:08;25.90;27.00
11399;DHT22;5755;48.116;11.608;2022-07-04T16:56:35;25.90;26.80
11399;DHT22;5755;48.116;11.608;2022-07-04T16:59:02;25.90;26.50
11399;DHT22;5755;48.116;11.608;2022-07-04T17:01:35;25.80;27.30
11399;DHT22;5755;48.116;11.608;2022-07-04T17:04:06;25.80;26.70
11399;DHT22;5755;48.116;11.608;2022-07-04T17:06:46;25.70;26.70
11399;DHT22;5755;48.116;11.608;2022-07-04T17:09:17;25.70;27.00
11399;DHT22;5755;48.116;11.608;2022-07-04T17:11:47;25.60;27.20
11399;DHT22;5755;48.116;11.608;2022-07-04T17:14:14;25.60;27.30
11399;DHT22;5755;48.116;11.608;2022-07-04T17:16:47;25.60;26.80
11399;DHT22;5755;48.116;11.608;2022-07-04T17:19:18;25.50;26.60
11399;DHT22;5755;48.116;11.608;2022-07-04T17:21:59;25.40;26.60